Time;durP1;ratioP1;P1;durP2;ratioP2;P2;SDS_P1;SDS_P2;PMS_P1;PMS_P2;Temp;Humidity;BMP_temperature;BMP_pressure;BME280_temperature;BME280_humidity;BME280_pressure;Samples;Min_cycle;Max_cycle;Signal;HPM_P1;HPM_P2
2022/12/09 05:05:44;;;;;;;52.00;32.88;;;;;;;6.75;93.24;99988.88;5609906;31;77821;-57
2022/12/09 05:08:47;;;;;;;50.38;32.58;;;;;;;6.75;93.24;99988.88;5598308;31;33374;-58
2022/12/09 05:11:50;;;;;;;52.90;33.25;;;;;;;6.25;100.00;99977.03;5603290;31;33613;-57
2022/12/09 05:14:53;;;;;;;50.12;31.10;;;;;;;6.15;86.17;99980.44;5603413;31;33638;-58
2022/12/09 05:17:57;;;;;;;54.85;32.50;;;;;;;6.30;99.49;99982.38;5603135;31;33571;-58
2022/12/09 05:21:05;;;;;;;47.58;31.87;;;;;;;6.27;91.20;99986.34;5603267;31;33572;-58
2022/12/09 05:24:07;;;;;;;46.17;29.98;;;;;;;6.22;84.18;99996.19;5603138;31;33691;-58
2022/12/09 05:27:10;;;;;;;49.00;31.12;;;;;;;6.26;96.66;99989.31;5602966;31;34262;-58
2022/12/09 05:30:13;;;;;;;54.42;33.47;;;;;;;6.30;98.01;99985.03;5603215;31;33572;-58
2022/12/09 05:33:16;;;;;;;47.42;32.55;;;;;;;6.33;87.98;99981.88;5603041;31;33601;-58
2022/12/09 05:36:23;;;;;;;54.35;33.67;;;;;;;6.55;96.92;99990.44;5602776;31;34276;-58
2022/12/09 05:39:26;;;;;;;54.50;32.88;;;;;;;6.62;98.99;99994.72;5603048;31;33776;-58
2022/12/09 05:42:29;;;;;;;57.10;33.53;;;;;;;6.38;85.06;99992.50;5602750;31;33657;-58
2022/12/09 05:45:31;;;;;;;48.72;32.50;;;;;;;6.38;84.11;99989.84;5574544;31;33716;-58
2022/12/09 05:48:35;;;;;;;50.08;31.83;;;;;;;6.32;84.75;99974.91;5583019;31;33653;-58
2022/12/09 05:51:38;;;;;;;46.88;31.25;;;;;;;6.52;85.94;99976.84;5583282;31;34392;-58
2022/12/09 05:54:40;;;;;;;49.65;32.78;;;;;;;6.45;87.64;99974.41;5580013;32;34217;-58
2022/12/09 05:57:42;;;;;;;50.70;31.75;;;;;;;6.42;87.21;99969.63;5582805;31;34318;-58
2022/12/09 06:00:46;;;;;;;51.25;32.40;;;;;;;6.43;91.21;99963.25;5596124;31;32052;-58
2022/12/09 06:03:50;;;;;;;46.63;32.45;;;;;;;6.45;86.99;99955.78;5589910;31;33600;-58
2022/12/09 06:06:53;;;;;;;48.17;32.35;;;;;;;6.39;84.86;99964.03;5579418;32;33407;-58
2022/12/09 06:09:55;;;;;;;45.60;32.05;;;;;;;6.33;83.95;99953.38;5563358;31;34395;-58
2022/12/09 06:12:58;;;;;;;45.25;32.13;;;;;;;6.44;84.94;99962.19;5563894;32;33540;-58
2022/12/09 06:16:03;;;;;;;47.85;31.40;;;;;;;6.31;83.33;99962.69;5572381;31;32901;-57
2022/12/09 06:19:05;;;;;;;45.35;29.80;;;;;;;6.37;83.60;99963.50;5566480;31;33681;-57
2022/12/09 06:22:08;;;;;;;50.85;33.05;;;;;;;6.38;93.91;99967.75;5573263;31;33649;-58
2022/12/09 06:25:10;;;;;;;47.78;32.03;;;;;;;6.29;85.82;99962.13;5563489;31;33623;-58
2022/12/09 06:28:13;;;;;;;50.12;30.70;;;;;;;6.33;89.48;99958.69;5562744;31;33583;-58
2022/12/09 06:31:15;;;;;;;48.28;31.08;;;;;;;6.30;88.53;99955.75;5561390;31;33628;-58
2022/12/09 06:34:19;;;;;;;44.90;31.75;;;;;;;6.42;88.34;99961.63;5553323;32;33813;-58
2022/12/09 06:37:21;;;;;;;46.25;33.30;;;;;;;6.61;98.51;99958.50;5561078;32;34282;-58
2022/12/09 06:40:24;;;;;;;57.75;31.52;;;;;;;6.67;91.93;99957.44;5565246;31;34293;-58
2022/12/09 06:43:26;;;;;;;48.50;31.27;;;;;;;6.61;86.59;99959.28;5568922;31;33615;-58
2022/12/09 06:46:29;;;;;;;51.40;32.45;;;;;;;6.66;96.59;99961.97;5554977;32;34291;-57
2022/12/09 06:49:31;;;;;;;46.05;31.87;;;;;;;6.72;90.58;99957.44;5554979;31;34320;-58
2022/12/09 06:52:36;;;;;;;47.88;30.77;;;;;;;6.52;88.52;99956.34;5557118;31;33829;-57
2022/12/09 06:55:38;;;;;;;48.22;31.45;;;;;;;6.76;96.57;99956.66;5554741;31;33412;-57
2022/12/09 06:58:42;;;;;;;48.85;31.75;;;;;;;6.59;91.43;99954.25;5548294;31;33587;-57
2022/12/09 07:01:44;;;;;;;44.30;31.48;;;;;;;6.79;91.54;99952.66;5558045;31;33311;-57
2022/12/09 07:04:54;;;;;;;46.55;30.85;;;;;;;6.68;94.00;99953.69;5563938;31;33450;-57
2022/12/09 07:07:57;;;;;;;44.03;30.20;;;;;;;6.65;95.57;99944.38;5575652;31;33315;-58
2022/12/09 07:11:00;;;;;;;45.90;30.92;;;;;;;6.82;99.63;99946.78;5557200;31;34330;-58
2022/12/09 07:14:03;;;;;;;43.58;30.02;;;;;;;6.75;90.75;99939.06;5558462;31;34058;-57
2022/12/09 07:17:06;;;;;;;46.28;30.75;;;;;;;6.63;96.76;99941.19;5561808;31;33593;-58
2022/12/09 07:20:10;;;;;;;46.10;30.42;;;;;;;6.81;100.00;99943.31;5552181;31;33713;-57
2022/12/09 07:23:13;;;;;;;42.03;29.73;;;;;;;6.83;96.04;99948.41;5560349;31;33615;-57
2022/12/09 07:26:16;;;;;;;44.90;29.25;;;;;;;6.67;94.97;99942.25;5549639;31;32038;-57
2022/12/09 07:29:19;;;;;;;46.37;29.50;;;;;;;6.90;100.00;99946.28;5556247;31;33434;-57
2022/12/09 07:32:21;;;;;;;43.95;30.62;;;;;;;6.86;91.29;99941.75;5552798;31;34237;-58
2022/12/09 07:35:24;;;;;;;42.33;31.05;;;;;;;6.73;89.88;99943.06;5555031;31;33617;-57
2022/12/09 07:38:27;;;;;;;48.33;30.60;;;;;;;6.74;90.01;99947.31;5554818;31;34568;-57
2022/12/09 07:41:30;;;;;;;39.65;28.33;;;;;;;6.80;91.24;99941.72;5562161;31;34404;-57
2022/12/09 07:44:32;;;;;;;47.10;30.20;;;;;;;6.82;93.87;99942.28;5573542;31;33840;-57
2022/12/09 07:47:35;;;;;;;42.53;28.55;;;;;;;6.77;98.79;99938.81;5558087;31;33767;-58
2022/12/09 07:50:37;;;;;;;45.28;30.55;;;;;;;6.88;99.01;99939.59;5553678;31;34282;-58
2022/12/09 07:53:43;;;;;;;43.40;29.95;;;;;;;6.93;92.11;99932.41;5556797;31;33652;-58
2022/12/09 07:56:46;;;;;;;39.85;28.23;;;;;;;7.03;100.00;99934.28;5556763;31;34551;-58
2022/12/09 07:59:49;;;;;;;38.78;29.12;;;;;;;6.96;91.22;99939.09;5551762;31;33597;-58
2022/12/09 08:02:52;;;;;;;38.92;27.48;;;;;;;6.93;90.43;99932.41;5556916;31;34298;-59
2022/12/09 08:05:55;;;;;;;40.00;28.27;;;;;;;7.09;100.00;99924.44;5558479;31;33653;-58
2022/12/09 08:09:04;;;;;;;43.53;29.63;;;;;;;7.02;99.82;99924.69;5558969;31;33592;-58
2022/12/09 08:12:10;;;;;;;48.80;31.95;;;;;;;6.91;95.96;99925.75;5560943;31;34956;-57
2022/12/09 08:15:15;;;;;;;48.38;33.10;;;;;;;7.00;93.86;99926.81;5559277;31;33875;-58
2022/12/09 08:18:17;;;;;;;47.80;31.42;;;;;;;6.88;96.18;99928.94;5559209;31;33744;-58
2022/12/09 08:21:28;;;;;;;44.00;30.33;;;;;;;6.72;92.55;99920.97;5564049;31;33760;-58
2022/12/09 08:24:31;;;;;;;44.60;30.35;;;;;;;6.73;92.06;99911.09;5558688;31;33568;-58
2022/12/09 08:27:33;;;;;;;43.20;29.10;;;;;;;6.59;93.88;99910.81;5555686;31;33765;-58
2022/12/09 08:30:36;;;;;;;44.97;30.15;;;;;;;6.82;100.00;99914.81;5588582;31;34190;-58
2022/12/09 08:33:39;;;;;;;40.92;29.25;;;;;;;6.87;100.00;99912.16;5567797;31;32715;-58
2022/12/09 08:36:43;;;;;;;40.60;28.65;;;;;;;7.05;99.21;99905.47;5559405;31;34369;-58
2022/12/09 08:39:45;;;;;;;46.28;28.92;;;;;;;6.82;99.56;99904.97;5559148;32;33634;-57
2022/12/09 08:42:48;;;;;;;48.80;29.75;;;;;;;6.77;93.21;99904.16;5554451;31;33791;-58
2022/12/09 08:45:50;;;;;;;54.40;31.77;;;;;;;6.88;94.04;99904.97;5552732;31;34243;-58
2022/12/09 08:48:53;;;;;;;45.05;27.58;;;;;;;6.90;94.14;99892.19;5548114;31;33540;-58
2022/12/09 08:51:56;;;;;;;40.65;26.62;;;;;;;6.89;100.00;99895.91;5548311;31;33317;-58
2022/12/09 08:54:59;;;;;;;41.88;27.77;;;;;;;7.14;100.00;99892.41;5557002;31;33636;-58
2022/12/09 08:58:01;;;;;;;42.15;27.08;;;;;;;7.01;93.21;99881.22;5548570;31;34322;-58
2022/12/09 09:01:04;;;;;;;41.88;28.17;;;;;;;6.99;97.35;99880.72;5547723;31;33567;-57
2022/12/09 09:04:10;;;;;;;40.53;27.37;;;;;;;7.02;94.79;99872.19;5560570;31;33677;-58
2022/12/09 09:07:13;;;;;;;37.58;27.15;;;;;;;7.22;96.30;99866.03;5559769;31;33883;-57
2022/12/09 09:10:16;;;;;;;39.53;26.58;;;;;;;7.09;92.80;99865.78;5555761;31;34276;-57
2022/12/09 09:13:19;;;;;;;38.55;26.48;;;;;;;7.34;100.00;99857.72;5554298;31;33145;-57
2022/12/09 09:16:25;;;;;;;40.00;26.77;;;;;;;7.15;93.41;99854.84;5559782;31;33809;-58
2022/12/09 09:19:28;;;;;;;40.12;24.02;;;;;;;7.24;92.19;99844.41;5562198;32;33900;-58
2022/12/09 09:22:31;;;;;;;35.83;24.98;;;;;;;7.21;99.91;99853.75;5559885;31;33613;-58
2022/12/09 09:25:33;;;;;;;36.08;23.77;;;;;;;6.98;94.72;99852.44;5566424;31;33665;-57
2022/12/09 09:28:36;;;;;;;38.47;24.95;;;;;;;6.93;96.54;99852.47;5550625;32;33602;-58
2022/12/09 09:31:38;;;;;;;38.67;24.70;;;;;;;7.13;100.00;99848.19;5554778;31;34048;-58
2022/12/09 09:34:41;;;;;;;35.05;23.83;;;;;;;7.39;100.00;99840.91;5572233;31;34212;-58
2022/12/09 09:37:44;;;;;;;35.08;23.83;;;;;;;7.26;94.62;99836.94;5563305;31;34388;-58
2022/12/09 09:40:48;;;;;;;36.33;23.50;;;;;;;7.15;96.62;99833.53;5559897;31;34519;-58
2022/12/09 09:43:51;;;;;;;36.88;23.70;;;;;;;7.46;96.98;99831.53;5561751;31;33268;-58
2022/12/09 09:46:55;;;;;;;34.67;22.77;;;;;;;7.23;97.27;99824.94;5560784;32;33732;-58
2022/12/09 09:50:08;;;;;;;34.78;23.70;;;;;;;7.17;91.60;99817.25;5565933;32;34984;-57
2022/12/09 09:53:24;;;;;;;35.80;24.10;;;;;;;7.18;90.83;99824.16;5567858;31;34219;-58
2022/12/09 09:56:53;;;;;;;36.70;24.90;;;;;;;7.18;89.25;99813.50;5568163;32;33636;-58
2022/12/09 10:00:25;;;;;;;33.90;22.05;;;;;;;7.13;92.39;99811.66;5567229;32;33555;-58
2022/12/09 10:03:56;;;;;;;34.97;24.58;;;;;;;7.60;100.00;99806.94;5566464;31;34402;-57
2022/12/09 10:07:11;;;;;;;34.28;23.23;;;;;;;7.57;94.77;99797.63;5559915;32;33786;-57
2022/12/09 10:10:23;;;;;;;33.72;22.70;;;;;;;7.54;94.96;99790.97;5566216;32;33690;-58
2022/12/09 10:13:48;;;;;;;34.10;22.70;;;;;;;7.61;96.10;99774.66;5564979;31;34273;-58
2022/12/09 10:16:54;;;;;;;36.63;22.55;;;;;;;7.40;87.33;99771.28;5563340;32;34450;-58
2022/12/09 10:20:31;;;;;;;31.83;22.08;;;;;;;7.13;94.03;99771.69;5554393;32;34256;-58
2022/12/09 10:23:34;;;;;;;31.02;22.52;;;;;;;7.62;100.00;99738.94;5558458;31;33560;-58
2022/12/09 10:26:37;;;;;;;34.00;22.73;;;;;;;7.73;100.00;99724.44;5559333;31;33608;-57
2022/12/09 10:30:05;;;;;;;29.35;21.40;;;;;;;7.54;89.36;99734.94;5568776;31;34408;-58
2022/12/09 10:33:13;;;;;;;34.45;23.50;;;;;;;7.51;100.00;99713.38;5556522;31;34302;-57
2022/12/09 10:36:23;;;;;;;30.77;21.30;;;;;;;7.95;100.00;99702.69;5569573;31;34442;-58
2022/12/09 10:39:33;;;;;;;29.45;19.95;;;;;;;7.75;95.28;99702.84;5562634;31;34698;-57
2022/12/09 10:46:22;;;;;;;26.45;18.30;;;;;;;7.74;90.68;99679.88;5565439;31;33570;-58
2022/12/09 10:49:26;;;;;;;26.30;19.00;;;;;;;7.43;92.03;99660.63;5569425;31;33710;-57
2022/12/09 10:52:37;;;;;;;29.55;19.55;;;;;;;7.60;96.84;99657.56;5560178;31;33170;-58
2022/12/09 10:55:48;;;;;;;27.15;18.85;;;;;;;7.93;100.00;99650.66;5585099;31;34306;-58
2022/12/09 10:59:16;;;;;;;27.33;18.45;;;;;;;7.86;96.74;99650.97;5549163;31;33742;-58
2022/12/09 11:02:20;;;;;;;27.67;19.10;;;;;;;7.71;96.92;99638.53;5555076;31;34405;-58
2022/12/09 11:05:27;;;;;;;31.02;18.58;;;;;;;7.66;88.78;99649.25;5571124;31;34222;-58
2022/12/09 11:08:30;;;;;;;28.10;19.75;;;;;;;7.65;100.00;99645.00;5559139;31;33618;-57
2022/12/09 11:11:42;;;;;;;29.37;20.17;;;;;;;7.98;100.00;99632.72;5557961;31;33619;-57
2022/12/09 11:15:03;;;;;;;26.12;18.48;;;;;;;8.16;94.65;99627.75;5563965;31;33707;-57
2022/12/09 11:18:27;;;;;;;27.67;19.55;;;;;;;8.08;100.00;99613.16;5551444;31;33748;-57
2022/12/09 11:21:35;;;;;;;25.23;17.75;;;;;;;8.16;99.39;99604.50;5558897;31;33685;-57
2022/12/09 11:24:39;;;;;;;28.98;18.73;;;;;;;8.09;90.38;99597.94;5554908;31;33725;-57
2022/12/09 11:28:02;;;;;;;25.15;18.67;;;;;;;8.17;100.00;99602.63;5565686;31;34393;-57
2022/12/09 11:31:14;;;;;;;25.83;19.25;;;;;;;8.04;99.09;99600.62;5539388;31;33239;-58
2022/12/09 11:34:36;;;;;;;28.45;19.00;;;;;;;8.19;100.00;99598.59;5565570;31;33846;-57
2022/12/09 11:37:39;;;;;;;24.27;18.23;;;;;;;8.12;91.82;99603.50;5554472;31;34423;-58
2022/12/09 11:40:42;;;;;;;23.70;17.65;;;;;;;8.31;99.48;99597.41;5562443;32;33932;-57
2022/12/09 11:43:51;;;;;;;25.58;18.10;;;;;;;8.33;100.00;99606.72;5568506;31;33655;-57
2022/12/09 11:46:58;;;;;;;26.83;18.83;;;;;;;8.53;96.82;99591.59;5564917;32;33494;-57
2022/12/09 11:50:23;;;;;;;27.40;18.67;;;;;;;8.41;93.89;99591.97;5559635;31;33644;-58
2022/12/09 11:53:31;;;;;;;22.42;16.27;;;;;;;8.49;92.43;99593.25;5559978;31;34432;-58
2022/12/09 11:56:37;;;;;;;23.85;16.42;;;;;;;8.24;89.79;99584.41;5562117;31;34333;-57
2022/12/09 11:59:49;;;;;;;21.63;16.43;;;;;;;8.36;94.23;99582.13;5565583;31;34997;-57
2022/12/09 12:03:04;;;;;;;24.02;16.92;;;;;;;8.26;91.24;99584.91;5549082;32;32172;-57
2022/12/09 12:06:15;;;;;;;23.92;15.85;;;;;;;8.41;98.99;99570.62;5548500;32;33671;-57
2022/12/09 12:09:28;;;;;;;21.55;16.15;;;;;;;8.34;100.00;99560.25;5573096;31;33239;-57
2022/12/09 12:12:44;;;;;;;22.83;17.10;;;;;;;8.30;98.05;99555.78;5559099;31;33670;-57
2022/12/09 12:16:14;;;;;;;22.67;15.57;;;;;;;8.54;96.54;99548.56;5564026;31;33476;-57
2022/12/09 12:19:29;;;;;;;22.17;15.60;;;;;;;8.28;89.43;99561.41;5560534;31;33723;-57
2022/12/09 12:23:00;;;;;;;23.12;15.73;;;;;;;8.36;100.00;99558.09;5564107;31;33989;-57
2022/12/09 12:26:20;;;;;;;24.65;17.35;;;;;;;8.39;100.00;99560.22;5560488;31;33501;-57
2022/12/09 12:30:11;;;;;;;24.23;15.43;;;;;;;8.27;93.83;99564.34;5575848;31;33457;-58
2022/12/09 12:33:40;;;;;;;24.27;16.12;;;;;;;8.37;95.33;99542.88;5548160;31;33528;-57
2022/12/09 12:37:26;;;;;;;23.08;15.65;;;;;;;8.44;100.00;99516.62;5561970;31;34413;-57
2022/12/09 12:40:31;;;;;;;;;;;;;;;8.37;91.69;99532.97;5566306;32;33843;-57
2022/12/09 12:47:45;;;;;;;21.80;15.45;;;;;;;8.28;100.00;99532.03;5564287;32;34025;-57
2022/12/09 12:51:07;;;;;;;23.23;15.50;;;;;;;7.89;89.55;99527.66;5564872;32;33642;-57
2022/12/09 12:54:23;;;;;;;20.58;15.40;;;;;;;7.99;94.80;99527.53;5559581;31;34355;-57
2022/12/09 12:57:40;;;;;;;24.98;16.60;;;;;;;8.02;100.00;99531.53;5582768;31;33696;-57
2022/12/09 13:01:18;;;;;;;25.17;17.20;;;;;;;8.26;100.00;99512.03;5563430;31;32192;-57
2022/12/09 13:04:26;;;;;;;25.33;16.40;;;;;;;8.53;100.00;99525.59;5567131;32;33801;-57
2022/12/09 13:07:44;;;;;;;24.63;16.33;;;;;;;8.29;100.00;99514.94;5557331;32;33690;-57
2022/12/09 13:10:51;;;;;;;22.50;14.65;;;;;;;8.19;100.00;99501.69;5566909;32;33361;-57
2022/12/09 13:14:02;;;;;;;21.95;14.57;;;;;;;8.09;96.11;99507.97;5567623;32;33774;-57
2022/12/09 13:17:08;;;;;;;24.65;16.45;;;;;;;7.91;97.88;99495.34;5559985;32;33464;-57
2022/12/09 13:20:29;;;;;;;23.10;15.65;;;;;;;7.98;93.07;99491.28;5554209;32;33589;-57
2022/12/09 13:23:57;;;;;;;25.95;16.50;;;;;;;8.00;98.63;99497.09;5561279;32;34636;-57
2022/12/09 13:27:04;;;;;;;26.52;16.95;;;;;;;8.00;100.00;99494.44;5558395;32;34204;-57
2022/12/09 13:30:18;;;;;;;27.80;17.00;;;;;;;8.16;99.44;99502.28;5569766;32;33809;-57
2022/12/09 13:33:43;;;;;;;26.75;17.65;;;;;;;8.30;92.51;99505.03;5558667;32;33600;-57
2022/12/09 13:36:47;;;;;;;26.35;16.98;;;;;;;8.27;94.92;99503.72;5553721;32;33713;-57
2022/12/09 13:39:49;;;;;;;29.20;18.05;;;;;;;8.08;97.30;99487.69;5565973;32;34443;-57
2022/12/09 13:43:04;;;;;;;25.70;17.05;;;;;;;8.15;97.39;99480.13;5554475;32;33794;-57
2022/12/09 13:46:07;;;;;;;25.55;17.60;;;;;;;8.04;91.04;99469.84;5550530;32;33585;-58
2022/12/09 13:49:12;;;;;;;25.35;17.17;;;;;;;8.06;95.25;99479.16;5550606;32;33672;-57
2022/12/09 13:52:43;;;;;;;27.83;17.87;;;;;;;7.93;92.25;99482.50;5550659;32;33738;-58
2022/12/09 13:56:19;;;;;;;27.95;18.85;;;;;;;8.16;95.68;99480.91;5568578;32;33788;-57
2022/12/09 13:59:40;;;;;;;30.08;19.58;;;;;;;8.39;99.00;99479.31;5570370;32;33574;-57
2022/12/09 14:02:58;;;;;;;26.52;17.60;;;;;;;8.14;89.51;99475.84;5566760;32;33741;-58
2022/12/09 14:06:15;;;;;;;29.05;19.00;;;;;;;8.12;100.00;99474.56;5570187;32;33616;-57
2022/12/09 14:09:20;;;;;;;;;;;;;;;8.28;100.00;99473.28;5570510;32;33695;-57
2022/12/09 14:12:25;;;;;;;27.02;18.02;;;;;;;8.25;100.00;99465.84;5570170;32;33637;-58
2022/12/09 14:15:34;;;;;;;26.98;17.60;;;;;;;8.33;99.86;99457.19;5569189;32;33901;-58
2022/12/09 14:18:37;;;;;;;29.12;18.77;;;;;;;8.47;100.00;99454.63;5570005;32;33691;-58
2022/12/09 14:21:41;;;;;;;26.45;17.35;;;;;;;8.47;91.84;99458.09;5569156;32;33752;-57
2022/12/09 14:24:53;;;;;;;28.80;19.30;;;;;;;8.10;90.76;99450.03;5570005;32;34511;-57
2022/12/09 14:28:14;;;;;;;28.25;18.23;;;;;;;8.34;100.00;99445.41;5569872;32;34331;-57
2022/12/09 14:31:54;;;;;;;27.80;18.48;;;;;;;8.27;100.00;99442.31;5568262;32;33894;-57
2022/12/09 14:35:03;;;;;;;26.90;17.00;;;;;;;8.24;96.87;99451.72;5568494;32;33749;-57
2022/12/09 14:38:33;;;;;;;28.42;17.92;;;;;;;8.18;100.00;99442.19;5568087;32;33655;-57
2022/12/09 14:41:46;;;;;;;29.58;18.67;;;;;;;8.31;100.00;99430.00;5559116;32;33762;-57
2022/12/09 14:44:59;;;;;;;27.60;16.48;;;;;;;8.16;94.47;99416.84;5567451;32;33274;-57
2022/12/09 14:48:08;;;;;;;28.75;17.48;;;;;;;8.24;98.22;99421.53;5566254;32;33749;-57
2022/12/09 14:51:22;;;;;;;28.87;17.30;;;;;;;8.14;92.54;99416.31;5567223;32;33931;-57
2022/12/09 14:54:34;;;;;;;32.45;19.20;;;;;;;8.21;100.00;99408.75;5567078;32;34049;-57
2022/12/09 14:57:42;;;;;;;27.80;17.60;;;;;;;8.13;95.89;99401.41;5569598;32;33578;-58
2022/12/09 15:00:45;;;;;;;28.58;17.85;;;;;;;8.06;92.42;99390.28;5568218;32;34258;-58
2022/12/09 15:03:53;;;;;;;29.37;18.27;;;;;;;8.20;94.42;99378.59;5568647;32;34355;-58
2022/12/09 15:07:09;;;;;;;30.10;18.80;;;;;;;8.10;100.00;99378.72;5566006;32;33804;-58
2022/12/09 15:10:33;;;;;;;28.20;17.95;;;;;;;8.14;97.97;99390.41;5566019;32;34887;-57
2022/12/09 15:13:37;;;;;;;28.10;17.17;;;;;;;8.24;100.00;99389.50;5565591;32;34422;-57
2022/12/09 15:16:41;;;;;;;26.92;17.45;;;;;;;8.25;100.00;99385.75;5567622;32;33776;-57
2022/12/09 15:19:50;;;;;;;29.50;17.85;;;;;;;7.95;89.67;99377.06;5567865;32;33676;-57
2022/12/09 15:23:21;;;;;;;29.23;17.77;;;;;;;7.75;90.10;99377.34;5569269;32;33725;-57
2022/12/09 15:26:29;;;;;;;33.42;18.77;;;;;;;7.65;97.72;99372.09;5569196;32;33985;-57
2022/12/09 15:29:32;;;;;;;30.15;17.23;;;;;;;8.01;100.00;99369.78;5569358;32;33847;-57
2022/12/09 15:32:37;;;;;;;29.50;17.87;;;;;;;7.93;100.00;99365.88;5568540;32;34352;-58
2022/12/09 15:35:41;;;;;;;28.87;18.42;;;;;;;7.74;96.10;99355.19;5569315;32;34544;-57
2022/12/09 15:38:52;;;;;;;29.95;18.40;;;;;;;7.84;94.67;99356.13;5569321;32;33524;-58
2022/12/09 15:42:06;;;;;;;30.45;17.87;;;;;;;7.98;100.00;99354.38;5569404;32;33764;-57
2022/12/09 15:45:18;;;;;;;29.83;18.65;;;;;;;8.00;100.00;99347.63;5569426;32;34340;-57
2022/12/09 15:48:25;;;;;;;30.23;17.33;;;;;;;8.19;100.00;99336.19;5568564;32;33623;-57
2022/12/09 15:51:28;;;;;;;27.52;17.52;;;;;;;7.99;99.36;99335.38;5569329;32;34346;-58
2022/12/09 15:54:36;;;;;;;27.35;18.10;;;;;;;8.17;96.42;99328.44;5569245;32;33757;-57
2022/12/09 15:57:38;;;;;;;29.42;17.85;;;;;;;8.53;100.00;99311.91;5569356;32;33604;-58
2022/12/09 16:00:47;;;;;;;26.52;17.45;;;;;;;8.26;95.29;99317.13;5569185;32;34315;-58
2022/12/09 16:03:53;;;;;;;27.10;17.50;;;;;;;7.98;90.79;99307.13;5569106;32;33740;-58
2022/12/09 16:06:55;;;;;;;28.12;16.62;;;;;;;7.79;89.03;99318.88;5569031;32;33759;-58
2022/12/09 16:10:09;;;;;;;24.92;16.45;;;;;;;8.05;100.00;99309.44;5569248;32;34284;-58
2022/12/09 16:13:15;;;;;;;26.48;16.85;;;;;;;8.22;100.00;99295.56;5569181;32;33734;-58
2022/12/09 16:16:28;;;;;;;23.87;15.98;;;;;;;8.24;100.00;99285.34;5569053;32;34441;-58
2022/12/09 16:19:34;;;;;;;24.52;16.12;;;;;;;8.06;89.79;99299.53;5569246;32;34345;-58
2022/12/09 16:22:40;;;;;;;25.65;16.35;;;;;;;7.92;100.00;99286.13;5569181;32;34298;-58
2022/12/09 16:25:46;;;;;;;27.50;15.80;;;;;;;8.00;100.00;99280.12;5569206;32;34410;-58
2022/12/09 16:29:02;;;;;;;26.10;16.85;;;;;;;8.38;100.00;99277.44;5568377;32;34457;-58
2022/12/09 16:32:16;;;;;;;24.33;14.95;;;;;;;8.71;100.00;99267.53;5568895;32;33815;-58
